createdAt,value
2023-04-19T00:00:52.747Z,28.74
2023-04-19T00:01:52.747Z,28.74
2023-04-19T00:02:52.886Z,28.75
2023-04-19T00:03:53.027Z,28.75
2023-04-19T00:04:52.970Z,28.75
2023-04-19T00:05:52.722Z,28.75
2023-04-19T00:06:52.699Z,28.73
2023-04-19T00:07:52.698Z,28.73
2023-04-19T00:08:52.694Z,28.74
2023-04-19T00:09:52.696Z,28.73
2023-04-19T00:10:52.704Z,28.74
2023-04-19T00:11:52.695Z,28.75
2023-04-19T00:12:52.667Z,28.72
2023-04-19T00:13:52.690Z,28.74
2023-04-19T00:14:52.686Z,28.77
2023-04-19T00:15:52.683Z,28.75
2023-04-19T00:16:52.718Z,28.76
2023-04-19T00:17:52.664Z,28.77
2023-04-19T00:18:52.692Z,28.77
2023-04-19T00:19:52.703Z,28.75
2023-04-19T00:20:52.740Z,28.77
2023-04-19T00:21:52.785Z,28.78
2023-04-19T00:22:52.833Z,28.74
2023-04-19T00:23:52.861Z,28.74
2023-04-19T00:24:52.914Z,28.75
2023-04-19T00:25:52.959Z,28.76
2023-04-19T00:26:53.004Z,28.75
2023-04-19T00:27:53.027Z,28.75
2023-04-19T00:28:53.091Z,28.77
2023-04-19T00:29:53.132Z,28.75
2023-04-19T00:30:53.230Z,28.76
2023-04-19T00:31:53.236Z,28.76
2023-04-19T00:32:53.301Z,28.79
2023-04-19T00:33:53.303Z,28.78
2023-04-19T00:34:53.332Z,28.79
2023-04-19T00:35:53.363Z,28.79
2023-04-19T00:36:53.397Z,28.76
2023-04-19T00:37:53.450Z,28.78
2023-04-19T00:38:53.489Z,28.79
2023-04-19T00:39:53.524Z,28.82
2023-04-19T00:40:53.555Z,28.82
2023-04-19T00:41:53.605Z,28.81
2023-04-19T00:42:53.672Z,28.81
2023-04-19T00:43:53.693Z,28.82
2023-04-19T00:44:53.750Z,28.80
2023-04-19T00:45:53.850Z,28.79
2023-04-19T00:46:53.802Z,28.78
2023-04-19T00:47:53.900Z,28.79
2023-04-19T00:48:53.887Z,28.79
2023-04-19T00:49:53.939Z,28.79
2023-04-19T00:50:53.976Z,28.80
2023-04-19T00:51:54.026Z,28.81
2023-04-19T00:52:54.067Z,28.80
2023-04-19T00:53:54.103Z,28.81
2023-04-19T00:54:54.157Z,28.82
2023-04-19T00:55:54.135Z,28.84
2023-04-19T00:56:54.132Z,28.84
2023-04-19T00:57:54.129Z,28.82
2023-04-19T00:58:54.126Z,28.82
2023-04-19T00:59:54.135Z,28.84
2023-04-19T01:00:54.100Z,28.83
2023-04-19T01:01:54.130Z,28.83
2023-04-19T01:02:54.262Z,28.84
2023-04-19T01:03:54.131Z,28.84
2023-04-19T01:04:54.091Z,28.85
2023-04-19T01:05:54.072Z,28.82
2023-04-19T01:06:54.066Z,28.82
2023-04-19T01:07:54.054Z,28.82
2023-04-19T01:08:54.109Z,28.84
2023-04-19T01:09:54.153Z,28.84
2023-04-19T01:10:54.194Z,28.85
2023-04-19T01:11:54.255Z,28.83
2023-04-19T01:12:54.288Z,28.86
2023-04-19T01:13:54.344Z,28.84
2023-04-19T01:14:54.392Z,28.87
2023-04-19T01:15:54.476Z,28.86
2023-04-19T01:16:54.506Z,28.86
2023-04-19T01:17:54.556Z,28.89
2023-04-19T01:18:54.587Z,28.88
2023-04-19T01:19:54.630Z,28.88
2023-04-19T01:20:54.673Z,28.89
2023-04-19T01:21:54.726Z,28.89
2023-04-19T01:22:54.777Z,28.90
2023-04-19T01:23:54.831Z,28.87
2023-04-19T01:24:54.873Z,28.89
2023-04-19T01:25:54.917Z,28.87
2023-04-19T01:26:54.968Z,28.88
2023-04-19T01:27:55.027Z,28.89
2023-04-19T01:28:55.059Z,28.88
2023-04-19T01:29:55.136Z,28.89
2023-04-19T01:30:55.248Z,28.89
2023-04-19T01:31:55.214Z,28.90
2023-04-19T01:32:55.300Z,28.90
2023-04-19T01:33:55.325Z,28.89
2023-04-19T01:34:55.379Z,28.92
2023-04-19T01:35:55.437Z,28.92
2023-04-19T01:36:55.498Z,28.91
2023-04-19T01:37:55.549Z,28.90
2023-04-19T01:38:55.518Z,28.93
2023-04-19T01:39:55.516Z,28.92
2023-04-19T01:40:55.496Z,28.93
2023-04-19T01:41:55.512Z,28.93
2023-04-19T01:42:55.489Z,28.92
2023-04-19T01:43:55.478Z,28.92
2023-04-19T01:44:55.471Z,28.93
2023-04-19T01:45:55.471Z,28.92
2023-04-19T01:46:55.496Z,28.95
2023-04-19T01:47:55.535Z,28.93
2023-04-19T01:48:55.575Z,28.96
2023-04-19T01:49:55.641Z,28.96
2023-04-19T01:50:55.690Z,28.94
2023-04-19T01:51:55.739Z,28.95
2023-04-19T01:52:55.782Z,28.95
2023-04-19T01:53:55.842Z,28.96
2023-04-19T01:54:55.887Z,28.94
2023-04-19T01:55:55.948Z,28.91
2023-04-19T01:56:56.001Z,28.94
2023-04-19T01:57:56.072Z,28.94
2023-04-19T01:58:56.106Z,28.92
2023-04-19T01:59:56.181Z,28.95
2023-04-19T02:00:56.279Z,28.95
2023-04-19T02:01:56.338Z,28.94
2023-04-19T02:02:56.410Z,28.97
2023-04-19T02:03:56.481Z,28.97
2023-04-19T02:04:56.458Z,28.97
2023-04-19T02:05:56.506Z,28.96
2023-04-19T02:06:56.562Z,28.95
2023-04-19T02:07:56.636Z,28.97
2023-04-19T02:08:56.667Z,28.97
2023-04-19T02:09:56.747Z,28.96
2023-04-19T02:10:56.791Z,28.95
2023-04-19T02:11:56.847Z,28.97
2023-04-19T02:12:56.915Z,28.98
2023-04-19T02:13:56.986Z,28.97
2023-04-19T02:14:57.037Z,28.96
2023-04-19T02:15:57.025Z,28.99
2023-04-19T02:16:57.054Z,29.00
2023-04-19T02:17:57.032Z,28.99
2023-04-19T02:18:56.984Z,29.00
2023-04-19T02:19:56.995Z,29.02
2023-04-19T02:20:56.994Z,29.02
2023-04-19T02:21:56.962Z,29.00
2023-04-19T02:22:56.937Z,29.02
2023-04-19T02:23:56.995Z,29.02
2023-04-19T02:24:56.996Z,29.01
2023-04-19T02:25:56.980Z,29.02
2023-04-19T02:26:56.973Z,29.01
2023-04-19T02:27:56.997Z,29.01
2023-04-19T02:28:56.946Z,29.04
2023-04-19T02:29:56.946Z,29.02
2023-04-19T02:30:56.939Z,29.01
2023-04-19T02:31:56.947Z,29.01
2023-04-19T02:32:57.006Z,28.99
2023-04-19T02:33:57.012Z,28.98
2023-04-19T02:34:57.073Z,29.02
2023-04-19T02:35:57.131Z,29.03
2023-04-19T02:36:57.118Z,29.05
2023-04-19T02:37:57.125Z,29.05
2023-04-19T02:38:57.102Z,29.03
2023-04-19T02:39:57.102Z,29.04
2023-04-19T02:40:57.095Z,29.03
2023-04-19T02:41:57.083Z,29.03
2023-04-19T02:42:57.075Z,29.04
2023-04-19T02:43:57.068Z,29.01
2023-04-19T02:44:57.059Z,29.01
2023-04-19T02:45:57.118Z,29.03
2023-04-19T02:46:57.163Z,29.04
2023-04-19T02:47:57.418Z,29.04
2023-04-19T02:48:57.210Z,29.03
2023-04-19T02:49:57.210Z,29.04
2023-04-19T02:50:57.186Z,29.06
2023-04-19T02:51:57.182Z,29.04
2023-04-19T02:52:57.168Z,29.04
2023-04-19T02:53:57.151Z,29.04
2023-04-19T02:54:57.155Z,29.02
2023-04-19T02:55:57.126Z,29.02
2023-04-19T02:56:57.121Z,29.02
2023-04-19T02:57:57.132Z,29.02
2023-04-19T02:58:57.098Z,28.96
2023-04-19T02:59:57.100Z,28.72
2023-04-19T03:00:57.139Z,28.49
2023-04-19T03:01:57.105Z,28.33
2023-04-19T03:02:57.222Z,28.30
2023-04-19T03:03:57.149Z,28.26
2023-04-19T03:04:57.069Z,28.22
2023-04-19T03:05:57.065Z,28.17
2023-04-19T03:06:57.064Z,28.13
2023-04-19T03:07:57.073Z,28.09
2023-04-19T03:08:57.069Z,28.05
2023-04-19T03:09:57.088Z,28.02
2023-04-19T03:10:57.120Z,28.01
2023-04-19T03:11:57.123Z,28.02
2023-04-19T03:12:57.166Z,27.97
2023-04-19T03:13:57.190Z,27.97
2023-04-19T03:14:57.251Z,27.97
2023-04-19T03:15:57.366Z,27.96
2023-04-19T03:16:57.285Z,27.94
2023-04-19T03:17:57.294Z,27.88
2023-04-19T03:18:57.268Z,27.92
2023-04-19T03:19:57.260Z,27.91
2023-04-19T03:20:57.266Z,27.83
2023-04-19T03:21:57.250Z,27.86
2023-04-19T03:22:57.242Z,27.82
2023-04-19T03:23:57.268Z,27.82
2023-04-19T03:24:57.245Z,27.77
2023-04-19T03:25:57.266Z,27.83
2023-04-19T03:26:57.343Z,27.77
2023-04-19T03:27:57.394Z,27.75
2023-04-19T03:28:57.440Z,27.75
2023-04-19T03:29:57.517Z,27.74
2023-04-19T03:30:57.571Z,27.76
2023-04-19T03:31:57.611Z,27.72
2023-04-19T03:32:57.684Z,27.69
2023-04-19T03:33:57.723Z,27.69
2023-04-19T03:34:57.830Z,27.68
2023-04-19T03:35:57.853Z,27.71
2023-04-19T03:36:57.886Z,27.64
2023-04-19T03:37:57.906Z,27.70
2023-04-19T03:38:57.953Z,27.70
2023-04-19T03:39:58.010Z,27.73
2023-04-19T03:40:58.038Z,27.68
2023-04-19T03:41:58.107Z,27.68
2023-04-19T03:42:58.167Z,27.71
2023-04-19T03:43:58.208Z,27.65
2023-04-19T03:44:58.220Z,27.67
2023-04-19T03:45:58.272Z,27.67
2023-04-19T03:46:58.259Z,27.72
2023-04-19T03:47:59.135Z,27.66
2023-04-19T03:48:58.248Z,27.64
2023-04-19T03:49:58.254Z,27.64
2023-04-19T03:50:58.253Z,27.66
2023-04-19T03:51:58.254Z,27.66
2023-04-19T03:52:58.256Z,27.64
2023-04-19T03:53:58.263Z,27.58
2023-04-19T03:54:58.270Z,27.65
2023-04-19T03:55:58.264Z,27.70
2023-04-19T03:56:58.273Z,27.70
2023-04-19T03:57:58.269Z,27.68
2023-04-19T03:58:58.277Z,27.66
2023-04-19T03:59:58.303Z,27.69
2023-04-19T04:00:58.298Z,27.70
2023-04-19T04:01:58.363Z,27.72
2023-04-19T04:02:58.604Z,27.75
2023-04-19T04:03:58.520Z,27.73
2023-04-19T04:04:58.437Z,27.71
2023-04-19T04:05:58.342Z,27.71
2023-04-19T04:06:58.341Z,27.75
2023-04-19T04:07:58.351Z,27.76
2023-04-19T04:08:58.345Z,27.77
2023-04-19T04:09:58.344Z,27.74
2023-04-19T04:10:58.351Z,27.76
2023-04-19T04:11:58.360Z,27.72
2023-04-19T04:12:58.353Z,27.75
2023-04-19T04:13:58.351Z,27.79
2023-04-19T04:14:58.353Z,27.77
2023-04-19T04:15:58.349Z,27.76
2023-04-19T04:16:58.363Z,27.79
2023-04-19T04:17:58.427Z,27.82
2023-04-19T04:18:58.363Z,27.68
2023-04-19T04:19:58.362Z,27.67
2023-04-19T04:20:58.374Z,27.72
2023-04-19T04:21:58.375Z,27.79
2023-04-19T04:22:58.364Z,27.82
2023-04-19T04:23:58.371Z,27.88
2023-04-19T04:24:58.371Z,27.89
2023-04-19T04:25:58.371Z,27.96
2023-04-19T04:26:58.376Z,28.07
2023-04-19T04:27:58.376Z,28.12
2023-04-19T04:28:58.385Z,28.09
2023-04-19T04:29:58.386Z,28.09
2023-04-19T04:30:58.371Z,28.21
2023-04-19T04:31:58.455Z,28.35
2023-04-19T04:32:58.430Z,28.34
2023-04-19T04:33:58.367Z,28.29
2023-04-19T04:34:58.502Z,28.16
2023-04-19T04:35:58.373Z,28.14
2023-04-19T04:36:58.370Z,28.22
2023-04-19T04:37:58.370Z,28.27
2023-04-19T04:38:58.374Z,28.27
2023-04-19T04:39:58.408Z,28.27
2023-04-19T04:40:58.459Z,28.22
2023-04-19T04:41:58.521Z,28.16
2023-04-19T04:42:58.554Z,28.09
2023-04-19T04:44:11.295Z,28.15
2023-04-19T04:44:59.616Z,28.21
2023-04-19T04:45:58.648Z,28.24
2023-04-19T04:46:58.600Z,28.21
2023-04-19T04:47:58.615Z,28.16
2023-04-19T04:48:58.603Z,28.14
2023-04-19T04:49:58.604Z,28.08
2023-04-19T04:50:58.622Z,27.89
2023-04-19T04:51:58.605Z,27.73
2023-04-19T04:52:58.594Z,27.73
2023-04-19T04:53:58.602Z,27.80
2023-04-19T04:54:58.603Z,27.76
2023-04-19T04:55:58.654Z,27.76
2023-04-19T04:56:58.786Z,27.73
2023-04-19T04:57:58.774Z,27.77
2023-04-19T04:58:58.787Z,27.80
2023-04-19T04:59:58.798Z,27.81
2023-04-19T05:00:58.835Z,27.73
2023-04-19T05:01:58.850Z,27.78
2023-04-19T05:02:58.894Z,27.78
2023-04-19T05:03:58.880Z,27.76
2023-04-19T05:04:58.808Z,27.75
2023-04-19T05:05:58.789Z,27.77
2023-04-19T05:06:58.893Z,27.77
2023-04-19T05:07:58.803Z,27.74
2023-04-19T05:08:58.807Z,27.76
2023-04-19T05:09:58.806Z,27.75
2023-04-19T05:10:58.821Z,27.76
2023-04-19T05:11:58.814Z,27.78
2023-04-19T05:12:58.815Z,27.73
2023-04-19T05:13:58.816Z,27.75
2023-04-19T05:14:58.814Z,27.72
2023-04-19T05:15:58.865Z,27.75
2023-04-19T05:16:58.820Z,27.74
2023-04-19T05:17:58.874Z,27.70
2023-04-19T05:18:58.832Z,27.70
2023-04-19T05:19:58.832Z,27.74
2023-04-19T05:20:58.833Z,27.78
2023-04-19T05:21:58.851Z,27.81
2023-04-19T05:22:58.908Z,27.81
2023-04-19T05:23:58.828Z,27.76
2023-04-19T05:24:58.832Z,27.74
2023-04-19T05:25:58.824Z,27.78
2023-04-19T05:26:58.816Z,27.74
2023-04-19T05:27:58.848Z,27.77
2023-04-19T05:28:58.823Z,27.82
2023-04-19T05:29:58.844Z,28.05
2023-04-19T05:30:58.861Z,27.85
2023-04-19T05:31:58.838Z,28.00
2023-04-19T05:32:58.903Z,28.84
2023-04-19T05:33:58.820Z,28.81
2023-04-19T05:34:58.835Z,29.14
2023-04-19T05:35:58.866Z,29.23
2023-04-19T05:36:58.873Z,29.29
2023-04-19T05:37:58.855Z,29.28
2023-04-19T05:38:58.997Z,29.13
2023-04-19T05:39:58.977Z,29.37
2023-04-19T05:40:59.054Z,29.46
2023-04-19T05:41:59.085Z,30.68
2023-04-19T05:42:59.182Z,30.19
2023-04-19T05:43:59.210Z,30.10
2023-04-19T05:44:59.257Z,30.19
2023-04-19T05:45:59.359Z,28.57
2023-04-19T05:46:59.335Z,28.15
2023-04-19T05:47:59.322Z,28.63
2023-04-19T05:48:59.314Z,28.70
2023-04-19T05:49:59.344Z,29.79
2023-04-19T05:50:59.329Z,30.30
2023-04-19T05:51:59.320Z,30.53
2023-04-19T05:52:59.328Z,30.76
2023-04-19T05:53:59.337Z,30.97
2023-04-19T05:54:59.365Z,30.94
2023-04-19T05:55:59.369Z,30.99
2023-04-19T05:56:59.382Z,30.27
2023-04-19T05:57:59.372Z,30.33
2023-04-19T05:58:59.392Z,30.04
2023-04-19T06:00:59.448Z,29.74
2023-04-19T06:01:59.485Z,29.73
2023-04-19T06:02:59.452Z,29.56
2023-04-19T06:03:59.518Z,29.33
2023-04-19T06:05:02.505Z,29.12
2023-04-19T06:06:00.563Z,29.21
2023-04-19T06:06:59.446Z,29.32
2023-04-19T06:08:59.470Z,29.03
2023-04-19T06:09:59.459Z,29.04
2023-04-19T06:11:02.600Z,29.05
2023-04-19T06:12:00.455Z,29.21
2023-04-19T06:12:59.463Z,28.99
2023-04-19T06:13:59.468Z,28.89
2023-04-19T06:14:59.466Z,28.80
2023-04-19T06:15:59.529Z,29.13
2023-04-19T06:16:59.473Z,29.47
2023-04-19T06:17:59.976Z,29.45
2023-04-19T06:18:59.476Z,29.30
2023-04-19T06:19:59.476Z,29.23
2023-04-19T06:20:59.478Z,29.23
2023-04-19T06:21:59.482Z,29.20
2023-04-19T06:22:59.480Z,29.25
2023-04-19T06:23:59.490Z,29.32
2023-04-19T06:24:59.506Z,29.46
2023-04-19T06:25:59.505Z,29.87
2023-04-19T06:26:59.507Z,29.66
2023-04-19T06:27:59.497Z,29.56
2023-04-19T06:28:59.504Z,29.48
2023-04-19T06:29:59.526Z,29.43
2023-04-19T06:30:59.511Z,29.42
2023-04-19T06:31:59.563Z,29.58
2023-04-19T06:32:59.562Z,29.90
2023-04-19T06:33:59.530Z,29.83
2023-04-19T06:34:59.509Z,29.92
2023-04-19T06:35:59.517Z,29.93
2023-04-19T06:36:59.507Z,30.00
2023-04-19T06:37:59.516Z,30.25
2023-04-19T06:38:59.595Z,30.29
2023-04-19T06:39:59.640Z,30.10
2023-04-19T06:40:59.675Z,30.00
2023-04-19T06:41:59.718Z,29.75
2023-04-19T06:42:59.790Z,29.90
2023-04-19T06:43:59.818Z,30.15
2023-04-19T06:44:59.898Z,30.48
2023-04-19T06:45:59.923Z,30.13
2023-04-19T06:46:59.979Z,30.13
2023-04-19T06:48:00.016Z,30.20
2023-04-19T06:49:00.017Z,30.15
2023-04-19T06:50:00.049Z,30.24
2023-04-19T06:51:00.073Z,30.28
2023-04-19T06:52:00.071Z,30.26
2023-04-19T06:53:00.119Z,30.17
2023-04-19T06:54:00.123Z,30.19
2023-04-19T06:55:00.172Z,30.34
2023-04-19T06:56:00.149Z,30.26
2023-04-19T06:57:00.198Z,29.86
2023-04-19T06:58:00.230Z,29.73
2023-04-19T06:59:00.255Z,29.73
2023-04-19T07:00:00.250Z,29.56
2023-04-19T07:01:00.308Z,29.50
2023-04-19T07:02:00.315Z,29.22
2023-04-19T07:03:00.467Z,29.24
2023-04-19T07:04:00.388Z,29.14
2023-04-19T07:05:00.293Z,29.10
2023-04-19T07:06:00.298Z,28.74
2023-04-19T07:07:00.330Z,28.79
2023-04-19T07:08:00.349Z,28.83
2023-04-19T07:09:00.456Z,28.85
2023-04-19T07:10:00.435Z,28.78
2023-04-19T07:11:00.456Z,28.77
2023-04-19T07:12:00.442Z,28.79
2023-04-19T07:13:00.450Z,28.83
2023-04-19T07:14:00.485Z,28.68
2023-04-19T07:15:00.639Z,28.60
2023-04-19T07:16:00.544Z,28.60
2023-04-19T07:17:00.460Z,28.55
2023-04-19T07:18:00.487Z,28.44
2023-04-19T07:19:00.478Z,28.75
2023-04-19T07:20:00.468Z,28.72
2023-04-19T07:21:00.495Z,28.68
2023-04-19T07:22:00.485Z,28.64
2023-04-19T07:23:00.487Z,28.78
2023-04-19T07:24:00.476Z,28.80
2023-04-19T07:25:00.500Z,28.66
2023-04-19T07:26:00.478Z,28.68
2023-04-19T07:27:00.522Z,28.68
2023-04-19T07:28:00.469Z,28.45
2023-04-19T07:29:00.501Z,28.69
2023-04-19T07:30:00.478Z,28.66
2023-04-19T07:31:00.493Z,28.64
2023-04-19T07:32:00.524Z,28.57
2023-04-19T07:33:00.571Z,28.57
2023-04-19T07:34:00.494Z,28.64
2023-04-19T07:35:00.721Z,28.55
2023-04-19T07:36:00.469Z,28.46
2023-04-19T07:37:00.463Z,28.70
2023-04-19T07:38:00.471Z,29.10
2023-04-19T07:39:00.475Z,29.17
2023-04-19T07:40:00.516Z,28.38
2023-04-19T07:41:00.558Z,29.27
2023-04-19T07:42:00.558Z,29.48
2023-04-19T07:43:00.576Z,29.64
2023-04-19T07:44:00.600Z,29.66
2023-04-19T07:45:00.635Z,29.71
2023-04-19T07:46:00.724Z,29.89
2023-04-19T07:47:00.876Z,29.83
2023-04-19T07:48:00.725Z,29.98
2023-04-19T07:49:00.662Z,30.12
2023-04-19T07:50:00.691Z,30.08
2023-04-19T07:51:00.721Z,30.07
2023-04-19T07:52:00.733Z,30.05
2023-04-19T07:53:00.797Z,30.12
2023-04-19T07:54:00.866Z,30.12
2023-04-19T07:55:00.906Z,30.15
2023-04-19T07:56:00.968Z,30.12
2023-04-19T07:57:01.090Z,30.12
2023-04-19T07:58:01.090Z,30.10
2023-04-19T07:59:08.447Z,30.08
2023-04-19T08:00:02.105Z,29.97
2023-04-19T08:01:01.142Z,29.91
2023-04-19T08:02:01.190Z,29.83
2023-04-19T08:03:01.251Z,29.67
2023-04-19T08:04:01.539Z,29.65
2023-04-19T08:05:01.270Z,28.85
2023-04-19T08:06:01.064Z,29.26
2023-04-19T08:07:01.074Z,29.31
2023-04-19T08:08:01.055Z,29.35
2023-04-19T08:09:01.065Z,29.22
2023-04-19T08:10:01.089Z,29.21
2023-04-19T08:11:02.085Z,29.15
2023-04-19T08:12:01.011Z,28.94
2023-04-19T08:13:05.041Z,28.90
2023-04-19T08:15:07.745Z,28.80
2023-04-19T08:16:18.044Z,28.80
2023-04-19T08:18:00.998Z,29.16
2023-04-19T08:19:01.001Z,29.21
2023-04-19T08:20:00.955Z,29.26
2023-04-19T08:21:00.944Z,29.26
2023-04-19T08:22:00.971Z,29.02
2023-04-19T08:23:07.558Z,29.08
2023-04-19T08:24:01.943Z,29.05
2023-04-19T08:25:00.930Z,29.04
2023-04-19T08:26:00.922Z,29.04
2023-04-19T08:27:00.911Z,29.01
2023-04-19T08:28:00.907Z,29.02
2023-04-19T08:29:00.898Z,29.39
2023-04-19T08:30:00.897Z,29.14
2023-04-19T08:31:00.930Z,29.18
2023-04-19T08:32:00.987Z,28.95
2023-04-19T08:33:00.966Z,28.75
2023-04-19T08:34:00.854Z,28.48
2023-04-19T08:35:00.868Z,28.12
2023-04-19T08:36:00.844Z,27.75
2023-04-19T08:37:04.357Z,27.54
2023-04-19T08:38:02.058Z,27.62
2023-04-19T08:39:05.737Z,27.12
2023-04-19T08:40:01.824Z,27.35
2023-04-19T08:41:00.806Z,27.28
2023-04-19T08:42:06.961Z,27.14
2023-04-19T08:43:01.792Z,27.30
2023-04-19T08:44:00.791Z,26.99
2023-04-19T08:46:00.872Z,27.06
2023-04-19T08:47:00.762Z,27.66
2023-04-19T08:48:02.043Z,27.88
2023-04-19T08:49:00.738Z,28.02
2023-04-19T08:50:13.960Z,27.98
2023-04-19T08:51:05.607Z,27.62
2023-04-19T08:52:00.734Z,28.33
2023-04-19T08:53:08.537Z,28.60
2023-04-19T08:54:01.789Z,28.53
2023-04-19T08:55:00.713Z,28.71
2023-04-19T08:56:10.596Z,28.96
2023-04-19T08:57:01.712Z,29.02
2023-04-19T08:58:00.693Z,29.10
2023-04-19T08:59:11.580Z,29.26
2023-04-19T09:00:01.720Z,29.17
2023-04-19T09:01:00.742Z,29.25
2023-04-19T09:02:00.775Z,29.26
2023-04-19T09:03:00.829Z,29.25
2023-04-19T09:04:07.303Z,29.32
2023-04-19T09:05:01.976Z,29.38
2023-04-19T09:06:00.757Z,29.42
2023-04-19T09:07:00.640Z,29.38
2023-04-19T09:08:00.623Z,29.49
2023-04-19T09:09:00.611Z,29.44
2023-04-19T09:10:03.389Z,29.55
2023-04-19T09:11:00.586Z,29.59
2023-04-19T09:12:00.651Z,29.62
2023-04-19T09:13:00.584Z,29.68
2023-04-19T09:14:00.570Z,29.65
2023-04-19T09:15:02.297Z,29.74
2023-04-19T09:16:00.585Z,29.76
2023-04-19T09:17:00.529Z,29.79
2023-04-19T09:18:00.584Z,29.76
2023-04-19T09:19:15.256Z,29.74
2023-04-19T09:20:01.545Z,29.81
2023-04-19T09:21:00.540Z,29.83
2023-04-19T09:22:00.528Z,29.78
2023-04-19T09:23:00.552Z,29.20
2023-04-19T09:24:02.338Z,29.50
2023-04-19T09:27:01.504Z,29.79
2023-04-19T09:28:00.476Z,29.66
2023-04-19T09:29:00.470Z,29.55
2023-04-19T09:30:00.517Z,29.63
2023-04-19T09:31:08.418Z,29.62
2023-04-19T09:32:01.477Z,29.65
2023-04-19T09:33:00.491Z,29.59
2023-04-19T09:34:00.413Z,29.50
2023-04-19T09:35:00.484Z,29.74
2023-04-19T09:36:00.418Z,29.73
2023-04-19T09:37:08.992Z,29.68
2023-04-19T09:38:05.764Z,29.97
2023-04-19T09:39:01.401Z,29.73
2023-04-19T09:40:00.427Z,29.69
2023-04-19T09:41:00.360Z,29.86
2023-04-19T09:42:00.361Z,29.29
2023-04-19T09:43:12.926Z,29.84
2023-04-19T09:44:15.594Z,28.79
2023-04-19T09:45:27.726Z,28.98
2023-04-19T09:46:01.539Z,29.20
2023-04-19T09:47:00.388Z,29.03
2023-04-19T09:48:00.426Z,28.81
2023-04-19T09:49:03.994Z,28.35
2023-04-19T09:50:02.565Z,28.12
2023-04-19T09:51:04.604Z,28.36
2023-04-19T09:52:01.313Z,28.16
2023-04-19T09:53:00.277Z,27.98
2023-04-19T09:54:00.253Z,27.60
2023-04-19T09:55:01.019Z,27.72
2023-04-19T09:56:02.681Z,27.65
2023-04-19T09:57:01.445Z,27.68
2023-04-19T09:58:00.222Z,27.34
2023-04-19T09:59:12.670Z,27.17
2023-04-19T10:00:01.220Z,27.34
2023-04-19T10:01:13.419Z,27.40
2023-04-19T10:02:01.300Z,27.04
2023-04-19T10:03:00.262Z,27.27
2023-04-19T10:04:13.775Z,26.93
2023-04-19T10:05:16.391Z,27.10
2023-04-19T10:06:10.280Z,26.78
2023-04-19T10:08:15.901Z,26.81
2023-04-19T10:09:19.028Z,26.58
2023-04-19T10:10:21.486Z,26.68
2023-04-19T10:11:18.981Z,26.66
2023-04-19T10:12:40.673Z,26.65
2023-04-19T10:13:22.020Z,26.52
2023-04-19T10:14:18.871Z,26.54
2023-04-19T10:15:18.851Z,26.39
2023-04-19T10:16:20.395Z,26.47
2023-04-19T10:17:18.793Z,26.51
2023-04-19T10:18:18.792Z,26.69
2023-04-19T10:19:18.837Z,26.73
2023-04-19T10:20:18.845Z,26.64
2023-04-19T10:21:18.896Z,26.70
2023-04-19T10:22:18.901Z,26.30
2023-04-19T10:23:18.911Z,26.57
2023-04-19T10:24:18.935Z,26.56
2023-04-19T10:25:18.955Z,26.27
2023-04-19T10:26:19.022Z,26.39
2023-04-19T10:27:19.030Z,26.30
2023-04-19T10:28:19.001Z,26.75
2023-04-19T10:29:18.962Z,26.78
2023-04-19T10:30:18.939Z,26.46
2023-04-19T10:31:18.931Z,26.67
2023-04-19T10:32:18.985Z,26.59
2023-04-19T10:33:18.831Z,26.59
2023-04-19T10:34:18.814Z,26.29
2023-04-19T10:35:18.779Z,26.39
2023-04-19T10:36:18.766Z,26.71
2023-04-19T10:37:18.717Z,26.69
2023-04-19T10:38:18.704Z,26.74
2023-04-19T10:39:18.730Z,26.26
2023-04-19T10:40:18.795Z,26.60
2023-04-19T10:41:19.161Z,26.52
2023-04-19T10:42:18.934Z,26.39
2023-04-19T10:43:18.884Z,26.30
2023-04-19T10:44:18.913Z,26.32
2023-04-19T10:45:18.871Z,26.50
2023-04-19T10:46:18.870Z,26.75
2023-04-19T10:47:18.841Z,26.79
2023-04-19T10:48:18.786Z,26.75
2023-04-19T10:49:19.073Z,26.40
2023-04-19T10:50:18.755Z,26.29
2023-04-19T10:51:18.727Z,26.30
2023-04-19T10:52:18.696Z,26.66
2023-04-19T10:53:18.708Z,26.68
2023-04-19T10:54:18.660Z,26.51
2023-04-19T10:55:18.691Z,26.57
2023-04-19T10:56:18.745Z,26.51
2023-04-19T10:57:18.767Z,26.50
2023-04-19T10:58:18.829Z,26.21
2023-04-19T10:59:19.047Z,26.31
2023-04-19T11:00:18.883Z,26.33
2023-04-19T11:01:19.004Z,26.68
2023-04-19T11:02:19.031Z,26.31
2023-04-19T11:03:19.054Z,26.48
2023-04-19T11:04:19.010Z,26.17
2023-04-19T11:05:20.342Z,26.40
2023-04-19T11:06:19.047Z,26.31
2023-04-19T11:07:19.060Z,26.42
2023-04-19T11:08:19.096Z,26.32
2023-04-19T11:09:19.155Z,26.47
2023-04-19T11:10:19.173Z,26.04
2023-04-19T11:11:19.221Z,26.18
2023-04-19T11:12:19.272Z,26.18
2023-04-19T11:13:19.277Z,26.27
2023-04-19T11:14:19.322Z,25.82
2023-04-19T11:15:19.344Z,25.97
2023-04-19T11:16:19.808Z,26.07
2023-04-19T11:17:19.303Z,26.36
2023-04-19T11:18:19.328Z,26.42
2023-04-19T11:19:19.453Z,26.05
2023-04-19T11:20:19.253Z,26.34
2023-04-19T11:21:19.215Z,26.28
2023-04-19T11:22:19.193Z,25.91
2023-04-19T11:23:19.193Z,25.84
2023-04-19T11:24:19.231Z,26.02
2023-04-19T11:25:19.336Z,26.25
2023-04-19T11:26:19.181Z,26.24
2023-04-19T11:27:19.235Z,26.15
2023-04-19T11:28:19.155Z,26.15
2023-04-19T11:29:19.162Z,25.74
2023-04-19T11:30:19.175Z,25.94
2023-04-19T11:31:19.250Z,26.25
2023-04-19T11:32:19.178Z,26.34
2023-04-19T11:33:19.142Z,26.17
2023-04-19T11:34:19.273Z,26.23
2023-04-19T11:35:19.088Z,26.41
2023-04-19T11:36:19.046Z,26.38
2023-04-19T11:37:19.011Z,26.26
2023-04-19T11:38:18.970Z,26.17
2023-04-19T11:39:18.961Z,26.11
2023-04-19T11:40:18.903Z,26.10
2023-04-19T11:41:18.879Z,26.15
2023-04-19T11:42:18.844Z,26.09
2023-04-19T11:43:18.812Z,26.06
2023-04-19T11:44:18.990Z,26.33
2023-04-19T11:45:28.751Z,26.65
2023-04-19T11:46:19.782Z,26.73
2023-04-19T11:47:18.676Z,26.77
2023-04-19T11:48:18.631Z,26.64
2023-04-19T11:49:18.592Z,26.63
2023-04-19T11:50:18.551Z,26.77
2023-04-19T11:51:18.512Z,26.84
2023-04-19T11:52:18.496Z,26.78
2023-04-19T11:53:18.446Z,26.80
2023-04-19T11:54:18.650Z,26.80
2023-04-19T11:55:18.411Z,26.81
2023-04-19T11:56:18.357Z,26.94
2023-04-19T11:57:18.326Z,27.05
2023-04-19T11:58:18.292Z,27.05
2023-04-19T11:59:18.253Z,29.95
2023-04-19T12:00:18.220Z,31.16
2023-04-19T12:01:18.187Z,31.19
2023-04-19T12:02:18.364Z,31.46
2023-04-19T12:03:18.424Z,30.36
2023-04-19T12:04:18.499Z,30.00
2023-04-19T12:05:18.364Z,29.96
2023-04-19T12:06:18.002Z,29.85
2023-04-19T12:07:17.977Z,29.84
2023-04-19T12:08:17.936Z,29.72
2023-04-19T12:09:17.908Z,29.67
2023-04-19T12:10:17.869Z,29.60
2023-04-19T12:11:17.836Z,29.57
2023-04-19T12:12:17.805Z,29.50
2023-04-19T12:13:17.830Z,29.45
2023-04-19T12:14:17.901Z,29.40
2023-04-19T12:15:17.774Z,29.38
2023-04-19T12:16:17.931Z,29.33
2023-04-19T12:17:17.732Z,29.21
2023-04-19T12:18:17.748Z,29.20
2023-04-19T12:19:18.096Z,29.12
2023-04-19T12:20:17.677Z,29.08
2023-04-19T12:21:17.648Z,28.98
2023-04-19T12:22:17.647Z,28.93
2023-04-19T12:23:17.644Z,28.86
2023-04-19T12:24:17.637Z,28.78
2023-04-19T12:25:17.626Z,28.74
2023-04-19T12:26:17.580Z,28.69
2023-04-19T12:27:17.581Z,28.63
2023-04-19T12:28:17.551Z,28.57
2023-04-19T12:29:17.720Z,28.53
2023-04-19T12:30:17.518Z,28.45
2023-04-19T12:31:17.521Z,29.00
2023-04-19T12:32:17.637Z,28.75
2023-04-19T12:33:17.480Z,28.86
2023-04-19T12:34:17.543Z,28.83
2023-04-19T12:35:17.439Z,29.00
2023-04-19T12:36:17.436Z,29.69
2023-04-19T12:37:17.337Z,29.75
2023-04-19T12:38:17.293Z,29.75
2023-04-19T12:39:17.438Z,29.89
2023-04-19T12:40:17.224Z,29.95
2023-04-19T12:41:17.176Z,30.15
2023-04-19T12:42:17.137Z,30.56
2023-04-19T12:43:17.100Z,30.85
2023-04-19T12:44:17.081Z,30.79
2023-04-19T12:45:17.029Z,30.94
2023-04-19T12:46:17.034Z,31.06
2023-04-19T12:47:16.954Z,31.06
2023-04-19T12:48:16.930Z,31.14
2023-04-19T12:49:17.318Z,31.23
2023-04-19T12:50:16.909Z,31.42
2023-04-19T12:51:16.870Z,31.46
2023-04-19T12:52:16.855Z,31.49
2023-04-19T12:53:16.845Z,31.63
2023-04-19T12:54:16.813Z,31.79
2023-04-19T12:55:16.795Z,31.70
2023-04-19T12:56:16.774Z,31.80
2023-04-19T12:57:16.744Z,31.70
2023-04-19T12:58:16.716Z,31.72
2023-04-19T12:59:16.798Z,31.60
2023-04-19T13:00:16.652Z,31.45
2023-04-19T13:01:16.622Z,31.33